Time;durP1;ratioP1;P1;durP2;ratioP2;P2;SDS_P1;SDS_P2;PMS_P1;PMS_P2;Temp;Humidity;BMP_temperature;BMP_pressure;BME280_temperature;BME280_humidity;BME280_pressure;Samples;Min_cycle;Max_cycle;Signal;HPM_P1;HPM_P2
2022/11/10 00:00:21;;;;;;;4.88;1.50;;;;;;;9.75;86.78;98668.59;4220798;28;20059;-73
2022/11/10 00:02:21;;;;;;;4.40;1.55;;;;;;;9.68;86.66;98669.28;4220788;28;20184;-73
2022/11/10 00:04:22;;;;;;;5.53;1.80;;;;;;;9.68;86.85;98679.50;4220766;27;20161;-73
2022/11/10 00:06:22;;;;;;;2.78;1.40;;;;;;;9.64;86.85;98671.16;4220559;28;20043;-73
2022/11/10 00:08:22;;;;;;;4.60;1.95;;;;;;;9.62;86.72;98675.47;4220566;28;20050;-73
2022/11/10 00:10:23;;;;;;;3.05;1.67;;;;;;;9.63;87.20;98682.59;4220962;28;20040;-73
2022/11/10 00:12:23;;;;;;;5.47;1.50;;;;;;;9.56;87.26;98683.25;4220113;28;20050;-73
2022/11/10 00:17:00;;;;;;;5.60;2.03;;;;;;;9.50;87.13;98682.75;4220129;28;20043;-74
2022/11/10 00:19:01;;;;;;;1.70;1.30;;;;;;;9.46;87.49;98692.13;4219694;28;20500;-73
2022/11/10 00:21:06;;;;;;;2.80;1.30;;;;;;;9.41;87.74;98682.19;4220861;28;20040;-73
2022/11/10 00:23:07;;;;;;;4.80;1.70;;;;;;;9.36;87.93;98684.44;4220166;28;20081;-73
2022/11/10 00:25:09;;;;;;;5.43;1.80;;;;;;;9.33;87.59;98690.69;4220020;28;20360;-73
2022/11/10 00:27:09;;;;;;;2.85;1.40;;;;;;;9.29;88.15;98701.66;4220452;28;20078;-73
2022/11/10 00:29:10;;;;;;;3.90;1.42;;;;;;;9.28;87.82;98714.69;4220235;28;20414;-73
2022/11/10 00:31:11;;;;;;;4.25;1.40;;;;;;;9.28;87.66;98714.69;4220892;28;20031;-73
2022/11/10 00:33:11;;;;;;;4.80;1.60;;;;;;;9.28;87.26;98716.66;4218767;28;20043;-73
2022/11/10 00:35:11;;;;;;;5.32;1.98;;;;;;;9.26;87.53;98716.19;4220169;28;20713;-73
2022/11/10 00:37:12;;;;;;;2.83;1.40;;;;;;;9.19;88.04;98721.59;4220734;28;20046;-74
2022/11/10 00:39:12;;;;;;;3.80;1.70;;;;;;;9.12;87.90;98716.72;4220624;27;20502;-73
2022/11/10 00:41:12;;;;;;;10.45;1.90;;;;;;;9.11;88.40;98723.41;4219921;28;20119;-73
2022/11/10 00:43:13;;;;;;;2.15;1.30;;;;;;;9.05;88.21;98730.34;4219627;28;20517;-73
2022/11/10 00:45:13;;;;;;;3.63;1.58;;;;;;;9.03;88.48;98723.59;4220033;28;20130;-73
2022/11/10 00:47:13;;;;;;;5.13;1.50;;;;;;;9.03;87.79;98732.69;4219948;28;20058;-73
2022/11/10 00:49:14;;;;;;;3.33;1.65;;;;;;;8.98;88.48;98730.19;4201246;28;20093;-73
2022/11/10 00:51:25;;;;;;;3.40;1.50;;;;;;;8.94;88.84;98729.34;4220118;28;20216;-74
2022/11/10 00:53:25;;;;;;;4.68;1.88;;;;;;;8.90;89.00;98734.75;4219733;28;20138;-73
2022/11/10 00:55:26;;;;;;;3.78;1.60;;;;;;;8.83;88.87;98734.59;4219375;28;20431;-73
2022/11/10 00:57:26;;;;;;;4.53;1.85;;;;;;;8.83;89.03;98739.31;4219485;28;20131;-73
2022/11/10 00:59:26;;;;;;;3.65;1.55;;;;;;;8.83;88.96;98731.03;4220028;28;20036;-73
2022/11/10 01:01:27;;;;;;;5.18;1.67;;;;;;;8.79;89.07;98732.94;4219779;28;20039;-73
2022/11/10 01:03:27;;;;;;;2.83;1.20;;;;;;;8.79;89.55;98742.00;4219166;28;20095;-73
2022/11/10 01:05:30;;;;;;;3.67;2.05;;;;;;;8.77;89.54;98746.25;4219776;28;20070;-73
2022/11/10 01:07:31;;;;;;;4.22;2.00;;;;;;;8.74;89.30;98756.06;4219720;28;20431;-73
2022/11/10 01:09:31;;;;;;;3.80;1.98;;;;;;;8.73;89.25;98751.72;4219837;28;20054;-73
2022/11/10 01:11:31;;;;;;;6.78;1.90;;;;;;;8.69;89.65;98754.41;4219716;28;20043;-73
2022/11/10 01:13:32;;;;;;;5.38;1.73;;;;;;;8.65;89.51;98755.47;4219168;28;20051;-73
2022/11/10 01:15:36;;;;;;;4.18;1.75;;;;;;;8.69;89.34;98761.88;4219880;28;20071;-73
2022/11/10 01:17:37;;;;;;;4.22;1.67;;;;;;;8.63;89.54;98763.31;4218682;28;20395;-73
2022/11/10 01:19:40;;;;;;;3.97;1.65;;;;;;;8.63;89.73;98771.59;4219540;28;20138;-73
2022/11/10 01:21:41;;;;;;;;;;;;;;;8.58;90.16;98775.41;4220080;28;20092;-73
2022/11/10 01:23:41;;;;;;;4.30;1.77;;;;;;;8.57;90.25;98762.78;4219287;28;19916;-73
2022/11/10 01:25:41;;;;;;;2.83;1.27;;;;;;;8.56;90.23;98769.44;4219561;28;20066;-73
2022/11/10 01:27:42;;;;;;;4.05;1.52;;;;;;;8.56;90.11;98769.44;4218485;28;20040;-73
2022/11/10 01:29:42;;;;;;;4.13;1.60;;;;;;;8.56;90.39;98763.94;4219589;28;20043;-73
2022/11/10 01:31:43;;;;;;;5.35;2.38;;;;;;;8.64;90.09;98770.41;4219105;28;20044;-73
2022/11/10 01:33:43;;;;;;;3.70;1.90;;;;;;;8.65;89.79;98772.81;4218923;28;20387;-73
2022/11/10 01:35:44;;;;;;;5.57;1.73;;;;;;;8.63;89.96;98771.59;4219629;28;20803;-73
2022/11/10 01:37:45;;;;;;;5.22;1.67;;;;;;;8.64;90.34;98773.19;4220118;27;20035;-73
2022/11/10 01:39:45;;;;;;;2.60;1.30;;;;;;;8.61;90.19;98777.47;4219128;28;20055;-73
2022/11/10 01:41:45;;;;;;;5.38;1.55;;;;;;;8.63;90.01;98782.63;4202064;28;20455;-73
2022/11/10 01:43:45;;;;;;;2.50;1.40;;;;;;;8.57;90.15;98773.81;4218699;28;20138;-73
2022/11/10 01:46:04;;;;;;;2.30;1.42;;;;;;;8.58;90.30;98780.91;4216684;28;20048;-73
2022/11/10 01:48:06;;;;;;;2.85;1.35;;;;;;;8.57;90.22;98786.78;4217512;28;20055;-73
2022/11/10 01:50:06;;;;;;;5.13;1.60;;;;;;;8.54;89.79;98791.06;4216629;28;20043;-73
2022/11/10 01:52:11;;;;;;;6.38;1.55;;;;;;;8.55;89.95;98795.44;4216475;28;20077;-73
2022/11/10 01:54:20;;;;;;;3.83;1.50;;;;;;;8.54;89.94;98798.56;4216471;28;20047;-73
2022/11/10 01:56:22;;;;;;;5.40;1.85;;;;;;;8.52;90.05;98800.84;4218396;28;20184;-73
2022/11/10 01:58:29;;;;;;;5.93;2.15;;;;;;;8.44;90.41;98806.22;4217206;28;20440;-73
2022/11/10 02:00:29;;;;;;;4.30;1.80;;;;;;;8.37;90.87;98806.03;4215809;28;20043;-73
2022/11/10 02:02:49;;;;;;;6.45;2.20;;;;;;;8.30;90.82;98803.06;4219089;28;20378;-73
2022/11/10 02:04:50;;;;;;;6.95;2.60;;;;;;;8.27;91.79;98805.69;4222374;27;20448;-73
2022/11/10 02:06:50;;;;;;;4.25;2.60;;;;;;;8.19;91.42;98807.47;4221364;28;20592;-73
2022/11/10 02:08:52;;;;;;;7.03;2.45;;;;;;;8.13;91.17;98812.47;4221601;28;20048;-73
2022/11/10 02:10:52;;;;;;;7.90;3.13;;;;;;;8.04;91.53;98808.28;4222140;28;20035;-73
2022/11/10 02:12:52;;;;;;;5.03;2.50;;;;;;;7.99;92.04;98817.59;4220966;28;20708;-73
2022/11/10 02:14:53;;;;;;;3.90;2.30;;;;;;;7.89;92.35;98810.63;4221073;28;20235;-73
2022/11/10 02:16:53;;;;;;;6.18;2.80;;;;;;;7.83;92.74;98814.78;4221793;28;20048;-73
2022/11/10 02:18:54;;;;;;;4.38;2.28;;;;;;;7.75;93.09;98821.25;4221364;28;20080;-73
2022/11/10 02:20:54;;;;;;;4.18;2.28;;;;;;;7.70;93.18;98826.22;4220952;28;20052;-73
2022/11/10 02:22:54;;;;;;;6.78;2.40;;;;;;;7.66;93.98;98826.09;4221076;28;20127;-73
2022/11/10 02:24:55;;;;;;;3.90;1.70;;;;;;;7.61;93.97;98823.59;4220474;28;20420;-73
2022/11/10 02:26:56;;;;;;;4.90;1.88;;;;;;;7.56;94.02;98821.09;4220988;28;20039;-73
2022/11/10 02:28:56;;;;;;;8.63;3.15;;;;;;;7.50;93.97;98823.28;4221301;28;20054;-73
2022/11/10 02:30:57;;;;;;;8.57;3.50;;;;;;;7.46;94.17;98827.91;4220876;28;20455;-73
2022/11/10 02:32:57;;;;;;;12.10;3.47;;;;;;;7.41;94.53;98817.13;4220727;28;20044;-74
2022/11/10 02:34:57;;;;;;;5.57;2.97;;;;;;;7.39;94.84;98830.44;4221431;28;20180;-73
2022/11/10 02:36:58;;;;;;;10.93;2.90;;;;;;;7.35;94.73;98826.78;4221247;28;20047;-73
2022/11/10 02:38:58;;;;;;;7.35;2.92;;;;;;;7.37;94.21;98824.50;4220082;28;20039;-73
2022/11/10 02:40:59;;;;;;;3.53;2.00;;;;;;;7.37;94.51;98827.25;4220954;28;20046;-73
2022/11/10 02:42:59;;;;;;;4.28;2.08;;;;;;;7.36;94.66;98824.81;4220678;28;20338;-73
2022/11/10 02:44:59;;;;;;;7.03;2.30;;;;;;;7.39;95.07;98829.66;4219623;28;20087;-73
2022/11/10 02:47:00;;;;;;;7.47;2.17;;;;;;;7.41;95.32;98822.63;4220503;28;20035;-73
2022/11/10 02:49:00;;;;;;;3.67;1.88;;;;;;;7.45;95.09;98834.56;4220671;28;20126;-73
2022/11/10 02:51:00;;;;;;;3.85;1.70;;;;;;;7.46;95.45;98830.66;4220447;28;20060;-73
2022/11/10 02:53:01;;;;;;;5.97;2.10;;;;;;;7.51;95.08;98840.63;4218666;28;20657;-73
2022/11/10 02:55:02;;;;;;;3.00;1.88;;;;;;;7.49;94.54;98843.72;4216608;28;20375;-73
2022/11/10 02:57:02;;;;;;;9.35;2.00;;;;;;;7.53;94.61;98839.13;4219214;28;20077;-73
2022/11/10 02:59:03;;;;;;;6.07;1.77;;;;;;;7.54;95.00;98839.94;4219113;28;20097;-73
2022/11/10 03:01:05;;;;;;;5.97;1.80;;;;;;;7.54;94.72;98845.44;4220362;28;20056;-73
2022/11/10 03:03:06;;;;;;;3.92;1.65;;;;;;;7.50;95.32;98848.06;4221821;27;20089;-73
2022/11/10 03:05:06;;;;;;;2.80;1.45;;;;;;;7.49;95.74;98840.16;4202808;28;20449;-73
2022/11/10 03:07:06;;;;;;;4.78;1.75;;;;;;;7.44;95.97;98841.19;4220964;28;20170;-73
2022/11/10 03:09:07;;;;;;;3.03;1.58;;;;;;;7.44;95.96;98846.72;4217820;28;20345;-73
2022/11/10 03:11:07;;;;;;;5.25;1.92;;;;;;;7.46;96.22;98857.41;4219473;28;20063;-73
2022/11/10 03:13:07;;;;;;;5.90;1.67;;;;;;;7.47;96.47;98840.53;4218563;28;20067;-73
2022/11/10 03:15:08;;;;;;;7.00;1.95;;;;;;;7.53;95.94;98850.16;4220292;28;20040;-73
2022/11/10 03:17:08;;;;;;;4.10;1.77;;;;;;;7.53;95.79;98860.34;4220815;28;20077;-73
2022/11/10 03:19:09;;;;;;;3.85;1.60;;;;;;;7.51;95.89;98857.94;4219856;28;20093;-73
2022/11/10 03:21:09;;;;;;;7.25;1.70;;;;;;;7.53;95.77;98865.84;4220999;28;20475;-73
2022/11/10 03:23:10;;;;;;;7.60;1.80;;;;;;;7.52;96.10;98873.31;4219199;28;20058;-73
2022/11/10 03:25:10;;;;;;;5.20;1.75;;;;;;;7.51;96.27;98870.91;4220246;28;20043;-73
2022/11/10 03:27:11;;;;;;;8.75;2.85;;;;;;;7.51;96.07;98868.16;4220283;28;20460;-73
2022/11/10 03:29:11;;;;;;;3.97;2.30;;;;;;;7.51;96.61;98879.97;4219460;28;20044;-73
2022/11/10 03:31:11;;;;;;;4.35;1.63;;;;;;;7.56;96.27;98889.94;4220928;28;20093;-73
2022/11/10 03:33:12;;;;;;;5.50;1.60;;;;;;;7.58;96.48;98884.88;4219743;28;20138;-73
2022/11/10 03:35:12;;;;;;;5.47;1.73;;;;;;;7.59;95.82;98886.47;4220130;28;20050;-73
2022/11/10 03:37:12;;;;;;;4.82;2.03;;;;;;;7.58;96.70;98891.19;4220596;28;20473;-73
2022/11/10 03:39:13;;;;;;;5.80;1.83;;;;;;;7.59;96.67;98890.03;4219474;27;20236;-73
2022/11/10 03:41:13;;;;;;;5.45;1.73;;;;;;;7.67;95.93;98887.50;4220409;28;20463;-73
2022/11/10 03:43:13;;;;;;;8.85;1.90;;;;;;;7.71;96.22;98886.47;4219231;28;20387;-73
2022/11/10 03:45:14;;;;;;;2.53;1.48;;;;;;;7.80;95.60;98895.38;4220197;28;20043;-73
2022/11/10 03:47:15;;;;;;;3.60;1.80;;;;;;;7.79;95.83;98895.75;4220063;28;20603;-73
2022/11/10 03:49:15;;;;;;;4.00;1.77;;;;;;;7.78;95.96;98902.41;4218975;28;20071;-73
2022/11/10 03:51:15;;;;;;;5.40;1.95;;;;;;;7.77;95.66;98903.53;4220480;28;20035;-73
2022/11/10 03:53:15;;;;;;;4.65;1.80;;;;;;;7.74;95.60;98890.47;4219489;28;20461;-73
2022/11/10 03:55:18;;;;;;;4.07;1.73;;;;;;;7.77;96.00;98893.31;4220228;28;20092;-73
2022/11/10 03:57:18;;;;;;;6.47;1.95;;;;;;;7.77;96.19;98887.81;4201725;28;20048;-73
2022/11/10 03:59:18;;;;;;;5.07;3.08;;;;;;;7.85;95.33;98891.56;4219132;28;20035;-73
2022/11/10 04:01:18;;;;;;;7.65;1.90;;;;;;;7.85;95.76;98897.06;4219979;28;20054;-73
2022/11/10 04:03:19;;;;;;;4.90;1.80;;;;;;;7.87;95.78;98903.84;4220151;27;20054;-73
2022/11/10 04:09:57;;;;;;;2.47;1.60;;;;;;;7.87;95.40;98906.63;4220205;28;20051;-73
2022/11/10 04:16:36;;;;;;;10.73;2.47;;;;;;;7.87;96.06;98927.84;4219979;28;20530;-73
2022/11/10 04:18:36;;;;;;;4.00;1.85;;;;;;;7.92;95.47;98927.59;4219851;28;20040;-73
2022/11/10 04:20:36;;;;;;;4.03;1.80;;;;;;;8.01;95.81;98935.72;4219524;28;20052;-73
2022/11/10 04:24:56;;;;;;;4.15;2.10;;;;;;;7.96;95.60;98923.00;4218487;28;20085;-73
2022/11/10 04:26:56;;;;;;;5.93;2.17;;;;;;;7.96;95.57;98923.00;4216167;28;20350;-73
2022/11/10 04:29:00;;;;;;;8.05;1.92;;;;;;;7.95;95.73;98934.38;4217956;28;20817;-73
2022/11/10 04:31:00;;;;;;;6.35;1.83;;;;;;;7.95;95.08;98940.69;4217678;28;20047;-73
2022/11/10 04:33:00;;;;;;;4.13;1.80;;;;;;;7.93;95.17;98937.44;4215381;28;20108;-73
2022/11/10 04:35:00;;;;;;;4.32;2.42;;;;;;;7.89;95.35;98947.59;4217571;28;20442;-73
2022/11/10 04:37:01;;;;;;;8.05;2.33;;;;;;;7.83;95.75;98957.22;4220053;28;20084;-73
2022/11/10 04:39:03;;;;;;;4.50;2.30;;;;;;;7.76;95.55;98957.00;4219819;28;20073;-73
2022/11/10 04:41:04;;;;;;;6.45;2.53;;;;;;;7.70;95.89;98953.72;4220086;28;20059;-73
2022/11/10 04:43:05;;;;;;;5.65;3.13;;;;;;;7.60;96.01;98962.44;4219605;28;20052;-73
2022/11/10 04:45:05;;;;;;;6.38;2.90;;;;;;;7.54;95.69;98969.34;4219477;28;20093;-73
2022/11/10 04:47:06;;;;;;;5.50;2.78;;;;;;;7.46;96.52;98973.03;4220086;28;20047;-73
2022/11/10 04:49:06;;;;;;;4.47;2.83;;;;;;;7.36;96.54;98967.97;4220130;28;20051;-73
2022/11/10 04:51:07;;;;;;;8.60;4.85;;;;;;;7.28;96.48;98972.44;4220056;28;20036;-73
2022/11/10 04:53:07;;;;;;;6.82;2.60;;;;;;;7.23;96.87;98973.47;4219193;28;20768;-73
2022/11/10 04:55:08;;;;;;;7.38;2.45;;;;;;;7.21;97.56;98986.78;4219765;28;20404;-73
2022/11/10 04:57:08;;;;;;;5.75;2.45;;;;;;;7.16;97.30;98987.00;4220233;28;20498;-73
2022/11/10 04:59:12;;;;;;;6.97;2.25;;;;;;;7.12;97.73;98997.09;4219558;28;20141;-73
2022/11/10 05:01:14;;;;;;;11.30;3.22;;;;;;;7.10;98.23;99004.06;4219777;28;20035;-73
2022/11/10 05:03:14;;;;;;;7.68;2.55;;;;;;;7.08;98.53;98998.13;4220247;27;20434;-73
2022/11/10 05:05:15;;;;;;;3.92;2.22;;;;;;;7.04;98.62;99004.31;4219984;28;20044;-73
2022/11/10 05:07:15;;;;;;;11.30;4.55;;;;;;;7.00;99.14;99008.09;4220015;28;20048;-73
2022/11/10 05:09:15;;;;;;;6.70;3.70;;;;;;;7.01;98.85;99009.69;4219248;28;20440;-73
2022/11/10 05:11:16;;;;;;;11.13;6.70;;;;;;;7.00;98.69;99005.31;4220197;28;20092;-73
2022/11/10 05:13:16;;;;;;;8.98;5.05;;;;;;;7.00;98.47;99013.59;4218503;28;20048;-73
2022/11/10 05:15:16;;;;;;;10.02;3.78;;;;;;;6.96;98.80;99009.91;4219223;28;20055;-73
2022/11/10 05:17:16;;;;;;;5.28;3.60;;;;;;;6.92;98.78;99007.03;4219958;28;20047;-73
2022/11/10 05:19:17;;;;;;;4.38;2.80;;;;;;;6.90;98.26;99005.78;4218340;28;20107;-73
2022/11/10 05:21:17;;;;;;;8.18;2.80;;;;;;;6.88;98.45;99019.88;4219364;28;20580;-73
2022/11/10 05:23:40;;;;;;;7.13;2.60;;;;;;;6.89;98.97;99020.69;4219017;28;20039;-73
2022/11/10 05:25:41;;;;;;;;;;;;;;;6.91;99.42;99032.94;4218555;28;20044;-73
2022/11/10 05:27:41;;;;;;;5.22;2.50;;;;;;;6.89;99.20;99034.44;4219101;28;19926;-73
2022/11/10 05:29:42;;;;;;;4.90;2.17;;;;;;;6.93;100.00;99035.34;4219115;28;20048;-73
2022/11/10 05:31:42;;;;;;;4.68;2.22;;;;;;;6.98;100.00;99032.38;4219739;28;20044;-73
2022/11/10 05:33:42;;;;;;;5.05;2.25;;;;;;;7.03;99.97;99032.16;4218825;28;20042;-73
2022/11/10 05:35:43;;;;;;;3.60;2.40;;;;;;;7.08;99.16;99033.88;4219309;28;20097;-73
2022/11/10 05:37:43;;;;;;;6.63;2.30;;;;;;;7.06;99.10;99039.75;4218188;28;20441;-73
2022/11/10 05:39:43;;;;;;;5.28;2.28;;;;;;;7.04;99.10;99036.53;4218821;28;20496;-73
2022/11/10 05:41:44;;;;;;;8.13;2.85;;;;;;;7.03;98.78;99040.41;4219517;28;20080;-73
2022/11/10 05:43:44;;;;;;;4.10;2.50;;;;;;;6.99;98.77;99045.00;4217772;28;20226;-73
2022/11/10 05:45:44;;;;;;;6.13;3.00;;;;;;;6.95;98.67;99052.31;4217997;28;20047;-73
2022/11/10 05:47:45;;;;;;;6.45;2.72;;;;;;;6.93;98.67;99065.59;4218786;28;20058;-73
2022/11/10 05:49:45;;;;;;;6.55;2.55;;;;;;;6.86;98.82;99060.66;4218978;28;20071;-73
2022/11/10 05:51:45;;;;;;;7.18;2.78;;;;;;;6.86;98.91;99065.34;4217773;28;20048;-73
2022/11/10 05:53:46;;;;;;;8.75;3.00;;;;;;;6.82;98.81;99061.69;4218340;28;20032;-73
2022/11/10 05:55:46;;;;;;;5.90;2.17;;;;;;;6.85;99.97;99067.28;4219328;28;20040;-73
2022/11/10 05:57:49;;;;;;;3.60;2.15;;;;;;;6.89;100.00;99067.44;4218611;28;20071;-73
2022/11/10 05:59:49;;;;;;;6.97;3.33;;;;;;;6.90;100.00;99067.09;4219264;28;20483;-73
2022/11/10 06:01:50;;;;;;;6.10;3.85;;;;;;;6.88;100.00;99072.13;4219084;28;20768;-73
2022/11/10 06:03:50;;;;;;;6.50;4.03;;;;;;;6.88;99.59;99072.13;4218692;28;20047;-73
2022/11/10 06:05:50;;;;;;;7.13;3.83;;;;;;;6.87;100.00;99083.44;4146965;28;20051;-73
2022/11/10 06:07:51;;;;;;;5.43;3.17;;;;;;;6.87;100.00;99089.78;4218174;28;20539;-73
2022/11/10 06:09:51;;;;;;;6.15;4.55;;;;;;;6.89;100.00;99095.75;4219028;28;20126;-73
2022/11/10 06:11:52;;;;;;;5.70;3.80;;;;;;;6.86;100.00;99101.91;4219301;28;20784;-73
2022/11/10 06:13:52;;;;;;;7.35;4.20;;;;;;;6.82;100.00;99098.25;4217135;28;20385;-73
2022/11/10 06:15:52;;;;;;;10.30;4.97;;;;;;;6.82;100.00;99102.94;4218918;28;20497;-73
2022/11/10 06:17:53;;;;;;;9.88;4.85;;;;;;;6.81;100.00;99099.38;4219161;28;20075;-73
2022/11/10 06:19:53;;;;;;;8.43;4.40;;;;;;;6.80;100.00;99117.03;4217421;28;20044;-73
2022/11/10 06:21:53;;;;;;;10.57;3.70;;;;;;;6.82;100.00;99119.44;4218333;28;20046;-73
2022/11/10 06:23:54;;;;;;;6.90;3.13;;;;;;;6.84;100.00;99125.41;4219031;28;20047;-73
2022/11/10 06:25:54;;;;;;;8.82;3.45;;;;;;;6.85;99.59;99129.75;4216143;28;20055;-73
2022/11/10 06:27:54;;;;;;;6.03;3.22;;;;;;;6.82;99.60;99133.19;4217006;28;20553;-73
2022/11/10 06:29:55;;;;;;;7.75;3.58;;;;;;;6.78;99.46;99135.00;4218551;28;20505;-73
2022/11/10 06:31:56;;;;;;;6.47;3.58;;;;;;;6.78;99.56;99144.03;4219249;28;20089;-73
2022/11/10 06:33:56;;;;;;;6.78;3.13;;;;;;;6.82;99.70;99138.69;4217783;28;20040;-73
2022/11/10 06:35:57;;;;;;;4.38;2.58;;;;;;;6.82;99.37;99133.19;4218332;28;20112;-73
2022/11/10 06:37:59;;;;;;;8.27;3.60;;;;;;;6.83;99.12;99138.34;4218720;28;20483;-73
2022/11/10 06:39:59;;;;;;;10.75;3.10;;;;;;;6.88;98.31;99145.59;4218961;28;20070;-73
2022/11/10 06:41:59;;;;;;;10.25;3.33;;;;;;;6.87;98.91;99158.56;4218858;28;20486;-73
2022/11/10 06:44:00;;;;;;;8.75;3.53;;;;;;;6.84;99.01;99167.47;4218336;28;20083;-73
2022/11/10 06:46:00;;;;;;;10.02;3.15;;;;;;;6.88;100.00;99170.38;4219081;28;20076;-73
2022/11/10 06:48:03;;;;;;;9.55;3.20;;;;;;;6.87;99.90;99166.81;4220118;28;20087;-73
2022/11/10 06:50:03;;;;;;;11.02;3.63;;;;;;;6.91;100.00;99170.47;4221560;28;20035;-73
2022/11/10 06:52:04;;;;;;;7.55;3.90;;;;;;;6.94;100.00;99178.03;4221996;28;20341;-73
2022/11/10 06:54:04;;;;;;;10.32;3.05;;;;;;;7.00;100.00;99182.22;4220729;28;20055;-73
2022/11/10 06:56:05;;;;;;;11.38;4.28;;;;;;;7.03;99.71;99177.97;4221941;28;20030;-73
2022/11/10 06:58:05;;;;;;;6.03;3.28;;;;;;;7.03;99.47;99176.06;4221944;28;20040;-73
2022/11/10 07:00:06;;;;;;;8.30;3.53;;;;;;;7.08;99.81;99190.72;4221894;28;20536;-73
2022/11/10 07:02:13;;;;;;;8.32;2.95;;;;;;;7.11;99.66;99190.03;4221720;28;20050;-73
2022/11/10 07:04:14;;;;;;;8.93;3.17;;;;;;;7.19;100.00;99191.91;4221987;27;20702;-73
2022/11/10 07:06:14;;;;;;;9.15;2.85;;;;;;;7.30;100.00;99201.38;4221511;28;20620;-73
2022/11/10 07:08:15;;;;;;;7.35;3.40;;;;;;;7.45;100.00;99208.19;4221923;28;20122;-73
2022/11/10 07:10:15;;;;;;;12.93;5.82;;;;;;;7.52;100.00;99206.47;4221433;28;20080;-73
2022/11/10 07:12:16;;;;;;;6.97;3.42;;;;;;;7.67;100.00;99204.22;4221669;28;20142;-73
2022/11/10 07:14:16;;;;;;;7.68;3.30;;;;;;;7.75;100.00;99215.16;4221702;28;20035;-73
2022/11/10 07:16:16;;;;;;;6.30;2.75;;;;;;;7.93;99.86;99215.75;4221217;28;20376;-73
2022/11/10 07:18:17;;;;;;;7.03;2.50;;;;;;;8.04;99.28;99219.69;4221719;28;20027;-73
2022/11/10 07:20:17;;;;;;;6.72;2.78;;;;;;;8.13;98.32;99223.13;4221450;28;20142;-73
2022/11/10 07:22:17;;;;;;;4.60;2.38;;;;;;;8.25;97.97;99213.25;4221479;28;20057;-73
2022/11/10 07:24:18;;;;;;;8.00;2.50;;;;;;;8.29;97.18;99220.50;4220705;28;20043;-73
2022/11/10 07:26:18;;;;;;;5.57;2.75;;;;;;;8.33;97.13;99221.41;4221690;28;20459;-73
2022/11/10 07:28:18;;;;;;;6.63;2.70;;;;;;;8.45;97.54;99231.66;4221269;28;20100;-73
2022/11/10 07:30:18;;;;;;;3.60;2.15;;;;;;;8.46;96.43;99233.28;4221203;28;20030;-73
2022/11/10 07:32:19;;;;;;;6.70;2.35;;;;;;;8.53;95.85;99230.75;4221310;28;20036;-73
2022/11/10 07:34:19;;;;;;;4.43;2.50;;;;;;;8.59;95.60;99234.06;4203196;28;20451;-73
2022/11/10 07:36:20;;;;;;;9.70;2.33;;;;;;;8.66;94.63;99237.84;4220434;28;20119;-73
2022/11/10 07:38:20;;;;;;;7.30;2.30;;;;;;;8.71;95.03;99243.13;4221053;27;20360;-73
2022/11/10 07:40:21;;;;;;;6.82;2.20;;;;;;;8.76;95.52;99244.03;4221293;28;20318;-73
2022/11/10 07:42:22;;;;;;;11.98;2.63;;;;;;;8.81;94.62;99241.84;4221060;28;20036;-73
2022/11/10 07:44:22;;;;;;;7.28;2.60;;;;;;;8.79;93.89;99241.41;4220708;28;20828;-73
2022/11/10 07:46:23;;;;;;;8.27;2.40;;;;;;;8.77;94.80;99252.00;4220177;28;20580;-73
2022/11/10 07:48:23;;;;;;;6.53;2.38;;;;;;;8.75;95.22;99254.25;4216101;27;20047;-73
2022/11/10 07:50:23;;;;;;;6.63;2.55;;;;;;;8.71;95.13;99242.34;4214356;28;20040;-73
2022/11/10 07:52:24;;;;;;;7.15;2.90;;;;;;;8.70;95.21;99243.47;4219194;28;20275;-73
2022/11/10 07:54:24;;;;;;;8.05;3.03;;;;;;;8.68;95.02;99248.53;4219918;28;20059;-73
2022/11/10 07:56:25;;;;;;;8.98;3.10;;;;;;;8.67;95.47;99244.97;4219480;28;20036;-73
2022/11/10 07:58:26;;;;;;;7.50;2.92;;;;;;;8.71;94.74;99254.16;4216492;28;20519;-73
2022/11/10 08:00:26;;;;;;;5.47;2.53;;;;;;;8.69;94.66;99266.72;4212556;28;20051;-73
2022/11/10 08:02:27;;;;;;;7.35;2.88;;;;;;;8.64;94.83;99258.66;4211439;28;20055;-73
2022/11/10 08:04:27;;;;;;;8.10;2.70;;;;;;;8.68;94.83;99268.63;4210733;28;20047;-73
2022/11/10 08:06:27;;;;;;;6.50;2.42;;;;;;;8.71;94.93;99262.44;4212644;28;20662;-73
2022/11/10 08:08:28;;;;;;;4.75;2.67;;;;;;;8.77;94.23;99293.38;4214828;28;20065;-73
2022/11/10 08:10:29;;;;;;;7.75;2.50;;;;;;;8.76;94.69;99283.47;4218010;28;20036;-73
2022/11/10 08:12:30;;;;;;;5.47;2.53;;;;;;;8.88;94.45;99288.19;4217057;28;20070;-73
2022/11/10 08:14:30;;;;;;;9.07;4.20;;;;;;;8.89;93.86;99287.81;4217352;28;20087;-73
2022/11/10 08:16:31;;;;;;;7.35;3.13;;;;;;;8.87;93.80;99303.94;4216901;28;20044;-73
2022/11/10 08:18:31;;;;;;;9.00;2.80;;;;;;;8.87;94.22;99309.44;4216206;28;20074;-73
2022/11/10 08:20:32;;;;;;;8.82;3.20;;;;;;;8.91;93.99;99313.13;4216908;28;20047;-73
2022/11/10 08:22:32;;;;;;;8.38;2.83;;;;;;;8.95;94.37;99316.81;4218532;28;20035;-73
2022/11/10 08:24:33;;;;;;;5.93;3.05;;;;;;;8.95;94.55;99319.56;4219651;28;20151;-73
2022/11/10 08:26:33;;;;;;;6.10;2.97;;;;;;;8.96;94.16;99331.41;4219528;28;20431;-73
2022/11/10 08:28:33;;;;;;;5.97;2.67;;;;;;;9.05;93.83;99334.03;4220352;28;20090;-73
2022/11/10 08:30:36;;;;;;;5.25;2.65;;;;;;;9.10;93.91;99342.06;4219543;28;20040;-73
2022/11/10 08:32:36;;;;;;;5.53;2.92;;;;;;;9.15;93.70;99350.13;4218489;28;20043;-73
2022/11/10 08:34:36;;;;;;;6.13;2.50;;;;;;;9.24;92.87;99354.38;4219052;28;20054;-73
2022/11/10 08:36:37;;;;;;;6.80;2.95;;;;;;;9.24;92.93;99357.13;4217246;28;20459;-73
2022/11/10 08:38:37;;;;;;;7.55;2.72;;;;;;;9.29;92.86;99358.84;4219524;27;20607;-73
2022/11/10 08:40:38;;;;;;;7.15;2.60;;;;;;;9.35;92.80;99362.16;4219084;28;20050;-73
2022/11/10 08:42:38;;;;;;;5.00;2.13;;;;;;;9.42;92.25;99363.19;4218859;28;20043;-73
2022/11/10 08:44:38;;;;;;;6.22;2.97;;;;;;;9.48;91.88;99361.78;4219388;28;20040;-73
2022/11/10 08:46:39;;;;;;;7.28;2.65;;;;;;;9.48;91.79;99366.53;4216304;28;20036;-73
2022/11/10 08:48:39;;;;;;;7.60;2.30;;;;;;;9.49;91.77;99360.63;4217399;28;20487;-73
2022/11/10 08:50:40;;;;;;;4.82;2.47;;;;;;;9.57;91.20;99367.19;4219046;28;20044;-73
2022/11/10 08:52:41;;;;;;;9.40;2.65;;;;;;;9.63;91.44;99362.22;4218470;28;20730;-73
2022/11/10 08:54:41;;;;;;;5.80;2.58;;;;;;;9.72;90.76;99371.16;4219026;28;20044;-73
2022/11/10 08:56:41;;;;;;;7.55;2.60;;;;;;;9.79;90.38;99374.16;4218514;28;20039;-73
2022/11/10 08:58:41;;;;;;;4.25;2.38;;;;;;;9.88;90.17;99379.53;4218967;28;20541;-73
2022/11/10 09:00:43;;;;;;;9.90;2.95;;;;;;;9.96;90.38;99373.03;4219100;28;20067;-73
2022/11/10 09:02:43;;;;;;;8.65;2.35;;;;;;;10.04;90.49;99392.25;4217781;28;20160;-73
2022/11/10 09:04:44;;;;;;;9.20;3.10;;;;;;;10.06;90.02;99389.91;4219841;28;20071;-73
2022/11/10 09:06:44;;;;;;;7.60;2.38;;;;;;;10.09;90.36;99394.75;4218926;28;20036;-73
2022/11/10 09:08:44;;;;;;;7.00;1.90;;;;;;;10.13;89.51;99395.66;4219195;28;20130;-73
2022/11/10 09:10:47;;;;;;;7.63;2.50;;;;;;;10.21;88.38;99396.66;4218488;28;20176;-73
2022/11/10 09:12:47;;;;;;;8.18;2.25;;;;;;;10.26;88.55;99401.16;4217237;28;20162;-73
2022/11/10 09:14:47;;;;;;;5.38;1.98;;;;;;;10.28;87.98;99412.69;4217622;28;20491;-73
2022/11/10 09:16:48;;;;;;;9.85;2.38;;;;;;;10.32;87.83;99411.59;4218982;28;20048;-73
2022/11/10 09:18:48;;;;;;;13.75;2.10;;;;;;;10.32;87.31;99400.53;4218899;28;20146;-73
2022/11/10 09:20:48;;;;;;;9.20;2.28;;;;;;;10.31;87.17;99414.72;4218813;28;20871;-73
2022/11/10 09:22:49;;;;;;;7.50;2.42;;;;;;;10.36;87.12;99408.94;4218403;28;20130;-73
2022/11/10 09:24:49;;;;;;;6.47;2.30;;;;;;;10.31;87.68;99420.25;4218284;28;20043;-73
2022/11/10 09:26:49;;;;;;;5.28;2.33;;;;;;;10.29;88.05;99417.84;4217688;28;20055;-73
2022/11/10 09:28:50;;;;;;;6.65;2.42;;;;;;;10.22;88.22;99414.06;4218900;28;20047;-74
2022/11/10 09:30:51;;;;;;;5.50;1.88;;;;;;;10.19;87.95;99412.81;4218276;28;20052;-73
2022/11/10 09:32:55;;;;;;;5.85;1.98;;;;;;;10.18;88.13;99415.91;4217078;28;20402;-73
2022/11/10 09:34:55;;;;;;;5.88;2.13;;;;;;;10.18;87.59;99418.66;4216410;28;20422;-73
2022/11/10 09:36:56;;;;;;;4.97;2.40;;;;;;;10.22;87.86;99411.28;4218630;28;20081;-73
2022/11/10 09:38:56;;;;;;;8.05;2.60;;;;;;;10.21;87.72;99420.75;4218934;28;20042;-73
2022/11/10 09:41:02;;;;;;;8.48;2.55;;;;;;;10.24;87.84;99431.13;4215661;28;20473;-73
2022/11/10 09:43:04;;;;;;;14.18;2.72;;;;;;;10.23;88.38;99418.44;4217719;28;20040;-73
2022/11/10 09:45:13;;;;;;;10.20;2.50;;;;;;;10.27;88.09;99424.91;4218086;28;20459;-73
2022/11/10 09:47:24;;;;;;;14.63;2.00;;;;;;;10.24;88.57;99423.63;4218215;28;20123;-73